Elko, Minnesota
Current Conditions -  °F | °C
As of 8:04 PM on Friday 19 Dec 2014 (Local Time) from KLVN Reporting Station
Haze Haze  
Wind Chill: 28°   Ceiling: 1300
Heat Index: 28°   Visibility: 5mi
Dew Point: 25°   Wind: 3mph
Humidity: 86%   Direction: 140°SE
Pressure: 30.18"   Gusts: NA
Location:  44.56°N, 93.33°W
Report Text: KLVN 200204Z AUTO 14003KT 5SM BR OVC013 M02/M04 A3018 RMK AO2
Loading
Personal Weather Stations






























Interactive Weather Map New forecast layout! Learn more

10-Day Weather Forecast

Advertisements
Track Severe Weather on mobile